sensor_id;sensor_type;location;lat;lon;timestamp;P1;durP1;ratioP1;P2;durP2;ratioP2
54953;SDS011;40855;51.072;5.402;2022-11-24T00:02:08;20.48;;;2.55;;
54953;SDS011;40855;51.072;5.402;2022-11-24T00:04:34;27.30;;;2.80;;
54953;SDS011;40855;51.072;5.402;2022-11-24T00:07:00;23.15;;;2.45;;
54953;SDS011;40855;51.072;5.402;2022-11-24T00:09:25;17.60;;;2.45;;
54953;SDS011;40855;51.072;5.402;2022-11-24T00:11:51;17.15;;;2.42;;
54953;SDS011;40855;51.072;5.402;2022-11-24T00:14:17;17.58;;;2.13;;
54953;SDS011;40855;51.072;5.402;2022-11-24T00:16:42;23.67;;;2.72;;
54953;SDS011;40855;51.072;5.402;2022-11-24T00:19:08;24.13;;;2.80;;
54953;SDS011;40855;51.072;5.402;2022-11-24T00:21:35;26.88;;;2.97;;
54953;SDS011;40855;51.072;5.402;2022-11-24T00:24:01;16.38;;;2.88;;
54953;SDS011;40855;51.072;5.402;2022-11-24T00:26:28;18.52;;;2.97;;
54953;SDS011;40855;51.072;5.402;2022-11-24T00:28:59;24.08;;;2.83;;
54953;SDS011;40855;51.072;5.402;2022-11-24T00:34:01;28.30;;;3.33;;
54953;SDS011;40855;51.072;5.402;2022-11-24T00:36:32;21.15;;;3.00;;
54953;SDS011;40855;51.072;5.402;2022-11-24T00:39:01;22.70;;;3.10;;
54953;SDS011;40855;51.072;5.402;2022-11-24T00:41:30;18.25;;;1.95;;
54953;SDS011;40855;51.072;5.402;2022-11-24T00:43:56;22.40;;;2.95;;
54953;SDS011;40855;51.072;5.402;2022-11-24T00:46:23;18.23;;;2.75;;
54953;SDS011;40855;51.072;5.402;2022-11-24T00:48:49;20.73;;;2.65;;
54953;SDS011;40855;51.072;5.402;2022-11-24T00:51:15;27.20;;;3.53;;
54953;SDS011;40855;51.072;5.402;2022-11-24T00:53:42;26.75;;;3.38;;
54953;SDS011;40855;51.072;5.402;2022-11-24T00:56:09;29.13;;;2.97;;
54953;SDS011;40855;51.072;5.402;2022-11-24T00:58:35;19.60;;;2.65;;
54953;SDS011;40855;51.072;5.402;2022-11-24T01:01:05;13.93;;;2.42;;
54953;SDS011;40855;51.072;5.402;2022-11-24T01:03:34;15.60;;;2.75;;
54953;SDS011;40855;51.072;5.402;2022-11-24T01:06:03;12.10;;;2.47;;
54953;SDS011;40855;51.072;5.402;2022-11-24T01:08:30;17.90;;;2.67;;
54953;SDS011;40855;51.072;5.402;2022-11-24T01:13:47;30.48;;;3.38;;
54953;SDS011;40855;51.072;5.402;2022-11-24T01:16:16;23.30;;;3.05;;
54953;SDS011;40855;51.072;5.402;2022-11-24T01:18:44;18.40;;;2.97;;
54953;SDS011;40855;51.072;5.402;2022-11-24T01:21:10;20.45;;;3.38;;
54953;SDS011;40855;51.072;5.402;2022-11-24T01:23:37;27.10;;;2.97;;
54953;SDS011;40855;51.072;5.402;2022-11-24T01:26:06;15.05;;;2.40;;
54953;SDS011;40855;51.072;5.402;2022-11-24T01:28:33;29.83;;;3.00;;
54953;SDS011;40855;51.072;5.402;2022-11-24T01:31:00;17.42;;;2.75;;
54953;SDS011;40855;51.072;5.402;2022-11-24T01:33:28;24.15;;;3.70;;
54953;SDS011;40855;51.072;5.402;2022-11-24T01:35:54;27.08;;;3.42;;
54953;SDS011;40855;51.072;5.402;2022-11-24T01:38:21;21.30;;;3.35;;
54953;SDS011;40855;51.072;5.402;2022-11-24T01:40:47;21.88;;;3.53;;
54953;SDS011;40855;51.072;5.402;2022-11-24T01:43:17;26.63;;;3.45;;
54953;SDS011;40855;51.072;5.402;2022-11-24T01:45:44;22.50;;;3.08;;
54953;SDS011;40855;51.072;5.402;2022-11-24T01:48:22;22.23;;;3.70;;
54953;SDS011;40855;51.072;5.402;2022-11-24T01:50:59;27.60;;;3.10;;
54953;SDS011;40855;51.072;5.402;2022-11-24T01:53:32;22.75;;;3.47;;
54953;SDS011;40855;51.072;5.402;2022-11-24T01:55:58;17.35;;;2.90;;
54953;SDS011;40855;51.072;5.402;2022-11-24T01:58:25;27.02;;;3.75;;
54953;SDS011;40855;51.072;5.402;2022-11-24T02:00:53;26.83;;;3.15;;
54953;SDS011;40855;51.072;5.402;2022-11-24T02:03:21;32.60;;;3.67;;
54953;SDS011;40855;51.072;5.402;2022-11-24T02:05:58;26.65;;;4.05;;
54953;SDS011;40855;51.072;5.402;2022-11-24T02:08:49;25.83;;;3.53;;
54953;SDS011;40855;51.072;5.402;2022-11-24T02:11:20;21.52;;;3.55;;
54953;SDS011;40855;51.072;5.402;2022-11-24T02:13:48;19.33;;;3.35;;
54953;SDS011;40855;51.072;5.402;2022-11-24T02:16:15;27.00;;;3.63;;
54953;SDS011;40855;51.072;5.402;2022-11-24T02:18:41;27.58;;;4.10;;
54953;SDS011;40855;51.072;5.402;2022-11-24T02:21:08;23.17;;;4.00;;
54953;SDS011;40855;51.072;5.402;2022-11-24T02:29:04;35.28;;;3.70;;
54953;SDS011;40855;51.072;5.402;2022-11-24T02:31:30;21.83;;;3.63;;
54953;SDS011;40855;51.072;5.402;2022-11-24T02:33:57;29.80;;;3.30;;
54953;SDS011;40855;51.072;5.402;2022-11-24T02:36:22;28.38;;;3.60;;
54953;SDS011;40855;51.072;5.402;2022-11-24T02:38:48;26.08;;;3.97;;
54953;SDS011;40855;51.072;5.402;2022-11-24T02:41:15;30.08;;;3.78;;
54953;SDS011;40855;51.072;5.402;2022-11-24T02:43:51;28.23;;;3.70;;
54953;SDS011;40855;51.072;5.402;2022-11-24T02:46:22;29.70;;;3.70;;
54953;SDS011;40855;51.072;5.402;2022-11-24T02:48:48;26.67;;;3.67;;
54953;SDS011;40855;51.072;5.402;2022-11-24T02:51:14;31.92;;;3.67;;
54953;SDS011;40855;51.072;5.402;2022-11-24T02:53:39;23.70;;;4.15;;
54953;SDS011;40855;51.072;5.402;2022-11-24T02:56:05;17.85;;;3.28;;
54953;SDS011;40855;51.072;5.402;2022-11-24T02:58:31;27.63;;;3.38;;
54953;SDS011;40855;51.072;5.402;2022-11-24T03:00:57;25.92;;;3.67;;
54953;SDS011;40855;51.072;5.402;2022-11-24T03:03:24;33.67;;;4.03;;
54953;SDS011;40855;51.072;5.402;2022-11-24T03:05:51;23.13;;;3.17;;
54953;SDS011;40855;51.072;5.402;2022-11-24T03:08:16;31.48;;;3.67;;
54953;SDS011;40855;51.072;5.402;2022-11-24T03:10:42;33.40;;;4.10;;
54953;SDS011;40855;51.072;5.402;2022-11-24T03:13:08;26.15;;;3.33;;
54953;SDS011;40855;51.072;5.402;2022-11-24T03:15:34;23.10;;;3.88;;
54953;SDS011;40855;51.072;5.402;2022-11-24T03:18:00;24.02;;;4.07;;
54953;SDS011;40855;51.072;5.402;2022-11-24T03:20:25;25.63;;;3.75;;
54953;SDS011;40855;51.072;5.402;2022-11-24T03:22:51;22.23;;;3.53;;
54953;SDS011;40855;51.072;5.402;2022-11-24T03:25:17;37.90;;;3.72;;
54953;SDS011;40855;51.072;5.402;2022-11-24T03:27:43;26.02;;;3.85;;
54953;SDS011;40855;51.072;5.402;2022-11-24T03:30:09;27.08;;;3.88;;
54953;SDS011;40855;51.072;5.402;2022-11-24T03:32:36;26.92;;;3.38;;
54953;SDS011;40855;51.072;5.402;2022-11-24T03:35:02;37.38;;;4.28;;
54953;SDS011;40855;51.072;5.402;2022-11-24T03:37:28;29.38;;;4.03;;
54953;SDS011;40855;51.072;5.402;2022-11-24T03:39:53;29.85;;;3.63;;
54953;SDS011;40855;51.072;5.402;2022-11-24T03:42:19;27.33;;;4.28;;
54953;SDS011;40855;51.072;5.402;2022-11-24T03:44:45;34.08;;;4.82;;
54953;SDS011;40855;51.072;5.402;2022-11-24T03:47:10;32.50;;;4.03;;
54953;SDS011;40855;51.072;5.402;2022-11-24T03:49:36;30.13;;;4.03;;
54953;SDS011;40855;51.072;5.402;2022-11-24T03:52:02;32.67;;;3.88;;
54953;SDS011;40855;51.072;5.402;2022-11-24T03:54:28;35.72;;;4.25;;
54953;SDS011;40855;51.072;5.402;2022-11-24T03:56:54;30.00;;;3.83;;
54953;SDS011;40855;51.072;5.402;2022-11-24T03:59:20;24.17;;;3.75;;
54953;SDS011;40855;51.072;5.402;2022-11-24T04:01:45;20.30;;;3.28;;
54953;SDS011;40855;51.072;5.402;2022-11-24T04:04:11;31.70;;;4.00;;
54953;SDS011;40855;51.072;5.402;2022-11-24T04:06:37;33.13;;;4.80;;
54953;SDS011;40855;51.072;5.402;2022-11-24T04:09:03;32.13;;;3.55;;
54953;SDS011;40855;51.072;5.402;2022-11-24T04:11:29;43.35;;;4.95;;
54953;SDS011;40855;51.072;5.402;2022-11-24T04:14:13;25.10;;;3.92;;
54953;SDS011;40855;51.072;5.402;2022-11-24T04:16:39;26.35;;;4.22;;
54953;SDS011;40855;51.072;5.402;2022-11-24T04:19:05;32.70;;;3.97;;
54953;SDS011;40855;51.072;5.402;2022-11-24T04:21:31;23.88;;;4.45;;
54953;SDS011;40855;51.072;5.402;2022-11-24T04:23:56;42.05;;;5.13;;
54953;SDS011;40855;51.072;5.402;2022-11-24T04:26:22;34.72;;;4.35;;
54953;SDS011;40855;51.072;5.402;2022-11-24T04:28:47;27.50;;;4.32;;
54953;SDS011;40855;51.072;5.402;2022-11-24T04:31:13;41.38;;;4.13;;
54953;SDS011;40855;51.072;5.402;2022-11-24T04:33:39;42.58;;;4.82;;
54953;SDS011;40855;51.072;5.402;2022-11-24T04:36:05;31.13;;;4.38;;
54953;SDS011;40855;51.072;5.402;2022-11-24T04:38:30;24.60;;;3.92;;
54953;SDS011;40855;51.072;5.402;2022-11-24T04:40:59;31.40;;;4.30;;
54953;SDS011;40855;51.072;5.402;2022-11-24T04:43:29;32.13;;;3.42;;
54953;SDS011;40855;51.072;5.402;2022-11-24T04:45:58;23.63;;;3.67;;
54953;SDS011;40855;51.072;5.402;2022-11-24T04:48:24;18.88;;;2.60;;
54953;SDS011;40855;51.072;5.402;2022-11-24T04:50:50;18.10;;;2.72;;
54953;SDS011;40855;51.072;5.402;2022-11-24T04:53:16;14.90;;;2.38;;
54953;SDS011;40855;51.072;5.402;2022-11-24T04:55:41;17.20;;;2.85;;
54953;SDS011;40855;51.072;5.402;2022-11-24T04:58:07;17.55;;;1.85;;
54953;SDS011;40855;51.072;5.402;2022-11-24T05:00:34;20.23;;;2.67;;
54953;SDS011;40855;51.072;5.402;2022-11-24T05:03:00;13.63;;;2.10;;
54953;SDS011;40855;51.072;5.402;2022-11-24T05:05:26;14.52;;;1.85;;
54953;SDS011;40855;51.072;5.402;2022-11-24T05:07:52;22.52;;;2.65;;
54953;SDS011;40855;51.072;5.402;2022-11-24T05:10:17;14.90;;;1.98;;
54953;SDS011;40855;51.072;5.402;2022-11-24T05:13:11;14.98;;;2.60;;
54953;SDS011;40855;51.072;5.402;2022-11-24T05:15:38;14.77;;;2.40;;
54953;SDS011;40855;51.072;5.402;2022-11-24T05:18:05;14.07;;;1.80;;
54953;SDS011;40855;51.072;5.402;2022-11-24T05:20:33;8.73;;;1.52;;
54953;SDS011;40855;51.072;5.402;2022-11-24T05:23:02;9.48;;;1.80;;
54953;SDS011;40855;51.072;5.402;2022-11-24T05:25:29;11.18;;;1.70;;
54953;SDS011;40855;51.072;5.402;2022-11-24T05:28:02;12.82;;;1.73;;
54953;SDS011;40855;51.072;5.402;2022-11-24T05:30:29;14.07;;;1.95;;
54953;SDS011;40855;51.072;5.402;2022-11-24T05:32:55;17.90;;;1.88;;
54953;SDS011;40855;51.072;5.402;2022-11-24T05:35:21;12.00;;;1.63;;
54953;SDS011;40855;51.072;5.402;2022-11-24T05:37:48;10.52;;;1.50;;
54953;SDS011;40855;51.072;5.402;2022-11-24T05:40:13;9.85;;;1.65;;
54953;SDS011;40855;51.072;5.402;2022-11-24T05:42:39;9.07;;;1.50;;
54953;SDS011;40855;51.072;5.402;2022-11-24T05:45:05;7.32;;;1.55;;
54953;SDS011;40855;51.072;5.402;2022-11-24T05:47:52;8.88;;;1.20;;
54953;SDS011;40855;51.072;5.402;2022-11-24T05:50:18;9.40;;;1.25;;
54953;SDS011;40855;51.072;5.402;2022-11-24T05:52:46;4.15;;;1.10;;
54953;SDS011;40855;51.072;5.402;2022-11-24T05:55:12;3.95;;;0.98;;
54953;SDS011;40855;51.072;5.402;2022-11-24T05:57:39;5.45;;;1.00;;
54953;SDS011;40855;51.072;5.402;2022-11-24T06:00:05;8.95;;;0.85;;
54953;SDS011;40855;51.072;5.402;2022-11-24T06:02:32;2.13;;;0.70;;
54953;SDS011;40855;51.072;5.402;2022-11-24T06:04:58;3.60;;;0.82;;
54953;SDS011;40855;51.072;5.402;2022-11-24T06:07:23;3.67;;;0.70;;
54953;SDS011;40855;51.072;5.402;2022-11-24T06:09:49;1.98;;;0.70;;
54953;SDS011;40855;51.072;5.402;2022-11-24T06:12:15;6.95;;;1.05;;
54953;SDS011;40855;51.072;5.402;2022-11-24T06:14:40;0.93;;;0.30;;
54953;SDS011;40855;51.072;5.402;2022-11-24T06:17:06;3.97;;;0.47;;
54953;SDS011;40855;51.072;5.402;2022-11-24T06:19:33;4.40;;;0.45;;
54953;SDS011;40855;51.072;5.402;2022-11-24T06:21:59;5.85;;;1.27;;
54953;SDS011;40855;51.072;5.402;2022-11-24T06:24:25;9.55;;;0.73;;
54953;SDS011;40855;51.072;5.402;2022-11-24T06:26:51;5.13;;;0.70;;
54953;SDS011;40855;51.072;5.402;2022-11-24T06:29:17;1.83;;;0.47;;
54953;SDS011;40855;51.072;5.402;2022-11-24T06:31:42;3.08;;;0.63;;
54953;SDS011;40855;51.072;5.402;2022-11-24T06:34:08;3.30;;;0.93;;
54953;SDS011;40855;51.072;5.402;2022-11-24T06:36:37;3.15;;;0.88;;
54953;SDS011;40855;51.072;5.402;2022-11-24T06:39:04;8.65;;;1.08;;
54953;SDS011;40855;51.072;5.402;2022-11-24T06:41:30;4.40;;;0.90;;
54953;SDS011;40855;51.072;5.402;2022-11-24T06:43:56;2.63;;;0.77;;
54953;SDS011;40855;51.072;5.402;2022-11-24T06:46:22;5.07;;;0.90;;
54953;SDS011;40855;51.072;5.402;2022-11-24T06:48:51;3.55;;;0.70;;
54953;SDS011;40855;51.072;5.402;2022-11-24T06:51:19;6.32;;;0.95;;
54953;SDS011;40855;51.072;5.402;2022-11-24T06:53:45;4.72;;;0.80;;
54953;SDS011;40855;51.072;5.402;2022-11-24T06:56:11;6.88;;;0.88;;
54953;SDS011;40855;51.072;5.402;2022-11-24T06:58:41;6.05;;;0.60;;
54953;SDS011;40855;51.072;5.402;2022-11-24T07:01:12;3.40;;;0.73;;
54953;SDS011;40855;51.072;5.402;2022-11-24T07:03:49;11.20;;;1.15;;
54953;SDS011;40855;51.072;5.402;2022-11-24T07:06:15;5.00;;;0.77;;
54953;SDS011;40855;51.072;5.402;2022-11-24T07:08:42;6.32;;;1.20;;
54953;SDS011;40855;51.072;5.402;2022-11-24T07:11:08;11.75;;;1.05;;
54953;SDS011;40855;51.072;5.402;2022-11-24T07:13:36;6.78;;;1.08;;
54953;SDS011;40855;51.072;5.402;2022-11-24T07:16:36;9.50;;;1.02;;
54953;SDS011;40855;51.072;5.402;2022-11-24T07:18:55;9.80;;;1.55;;
54953;SDS011;40855;51.072;5.402;2022-11-24T07:21:21;8.50;;;1.25;;
54953;SDS011;40855;51.072;5.402;2022-11-24T07:23:49;4.35;;;0.85;;
54953;SDS011;40855;51.072;5.402;2022-11-24T07:26:16;8.35;;;1.20;;
54953;SDS011;40855;51.072;5.402;2022-11-24T07:28:43;7.25;;;1.23;;
54953;SDS011;40855;51.072;5.402;2022-11-24T07:31:10;3.92;;;0.85;;
54953;SDS011;40855;51.072;5.402;2022-11-24T07:33:37;9.30;;;1.27;;
54953;SDS011;40855;51.072;5.402;2022-11-24T07:36:03;7.82;;;1.13;;
54953;SDS011;40855;51.072;5.402;2022-11-24T07:38:31;10.75;;;1.45;;
54953;SDS011;40855;51.072;5.402;2022-11-24T07:40:58;7.05;;;1.63;;
54953;SDS011;40855;51.072;5.402;2022-11-24T07:43:29;14.00;;;1.55;;
54953;SDS011;40855;51.072;5.402;2022-11-24T07:45:56;18.75;;;1.90;;
54953;SDS011;40855;51.072;5.402;2022-11-24T07:48:22;11.30;;;1.50;;
54953;SDS011;40855;51.072;5.402;2022-11-24T07:50:48;14.20;;;1.48;;
54953;SDS011;40855;51.072;5.402;2022-11-24T07:53:14;9.93;;;1.85;;
54953;SDS011;40855;51.072;5.402;2022-11-24T07:55:40;13.52;;;2.38;;
54953;SDS011;40855;51.072;5.402;2022-11-24T07:58:06;13.63;;;2.08;;
54953;SDS011;40855;51.072;5.402;2022-11-24T08:00:31;19.05;;;2.22;;
54953;SDS011;40855;51.072;5.402;2022-11-24T08:02:57;14.77;;;2.22;;
54953;SDS011;40855;51.072;5.402;2022-11-24T08:05:23;12.38;;;1.90;;
54953;SDS011;40855;51.072;5.402;2022-11-24T08:07:49;15.60;;;2.50;;
54953;SDS011;40855;51.072;5.402;2022-11-24T08:10:14;9.00;;;1.73;;
54953;SDS011;40855;51.072;5.402;2022-11-24T08:12:40;11.60;;;1.95;;
54953;SDS011;40855;51.072;5.402;2022-11-24T08:15:06;10.60;;;2.10;;
54953;SDS011;40855;51.072;5.402;2022-11-24T08:17:32;17.05;;;2.10;;
54953;SDS011;40855;51.072;5.402;2022-11-24T08:19:58;11.73;;;1.90;;
54953;SDS011;40855;51.072;5.402;2022-11-24T08:22:24;10.95;;;1.92;;
54953;SDS011;40855;51.072;5.402;2022-11-24T08:24:50;18.20;;;2.00;;
54953;SDS011;40855;51.072;5.402;2022-11-24T08:27:16;17.92;;;1.98;;
54953;SDS011;40855;51.072;5.402;2022-11-24T08:29:43;12.68;;;1.85;;
54953;SDS011;40855;51.072;5.402;2022-11-24T08:32:09;17.25;;;2.03;;
54953;SDS011;40855;51.072;5.402;2022-11-24T08:34:35;10.98;;;2.08;;
54953;SDS011;40855;51.072;5.402;2022-11-24T08:37:04;14.95;;;1.90;;
54953;SDS011;40855;51.072;5.402;2022-11-24T08:39:30;8.70;;;1.73;;
54953;SDS011;40855;51.072;5.402;2022-11-24T08:41:57;16.48;;;1.80;;
54953;SDS011;40855;51.072;5.402;2022-11-24T08:44:22;13.05;;;1.55;;
54953;SDS011;40855;51.072;5.402;2022-11-24T08:46:48;12.55;;;1.42;;
54953;SDS011;40855;51.072;5.402;2022-11-24T08:49:14;10.23;;;1.33;;
54953;SDS011;40855;51.072;5.402;2022-11-24T08:51:42;12.95;;;2.05;;
54953;SDS011;40855;51.072;5.402;2022-11-24T08:54:08;10.65;;;1.52;;
54953;SDS011;40855;51.072;5.402;2022-11-24T08:56:37;8.48;;;1.38;;
54953;SDS011;40855;51.072;5.402;2022-11-24T08:59:03;12.32;;;1.88;;
54953;SDS011;40855;51.072;5.402;2022-11-24T09:01:28;10.75;;;1.98;;
54953;SDS011;40855;51.072;5.402;2022-11-24T09:03:54;7.80;;;1.38;;
54953;SDS011;40855;51.072;5.402;2022-11-24T09:06:21;14.27;;;1.80;;
54953;SDS011;40855;51.072;5.402;2022-11-24T09:08:49;10.18;;;1.55;;
54953;SDS011;40855;51.072;5.402;2022-11-24T09:11:15;12.18;;;1.63;;
54953;SDS011;40855;51.072;5.402;2022-11-24T09:13:43;11.00;;;1.77;;
54953;SDS011;40855;51.072;5.402;2022-11-24T09:16:10;10.23;;;2.08;;
54953;SDS011;40855;51.072;5.402;2022-11-24T09:18:41;10.05;;;1.42;;
54953;SDS011;40855;51.072;5.402;2022-11-24T09:21:11;21.80;;;2.00;;
54953;SDS011;40855;51.072;5.402;2022-11-24T09:23:45;8.93;;;1.73;;
54953;SDS011;40855;51.072;5.402;2022-11-24T09:26:19;10.90;;;1.83;;
54953;SDS011;40855;51.072;5.402;2022-11-24T09:28:49;12.63;;;2.33;;
54953;SDS011;40855;51.072;5.402;2022-11-24T09:31:18;11.98;;;2.45;;
54953;SDS011;40855;51.072;5.402;2022-11-24T09:33:45;11.05;;;1.80;;
54953;SDS011;40855;51.072;5.402;2022-11-24T09:36:11;12.88;;;1.65;;
54953;SDS011;40855;51.072;5.402;2022-11-24T09:38:38;10.38;;;1.70;;
54953;SDS011;40855;51.072;5.402;2022-11-24T09:41:10;12.75;;;1.60;;
54953;SDS011;40855;51.072;5.402;2022-11-24T09:46:29;11.75;;;1.80;;
54953;SDS011;40855;51.072;5.402;2022-11-24T09:51:27;15.35;;;2.22;;
54953;SDS011;40855;51.072;5.402;2022-11-24T09:54:03;10.25;;;1.90;;
54953;SDS011;40855;51.072;5.402;2022-11-24T09:56:37;11.20;;;1.98;;
54953;SDS011;40855;51.072;5.402;2022-11-24T10:01:47;12.30;;;1.70;;
54953;SDS011;40855;51.072;5.402;2022-11-24T10:04:17;7.15;;;1.85;;
54953;SDS011;40855;51.072;5.402;2022-11-24T10:15:18;8.75;;;1.77;;
54953;SDS011;40855;51.072;5.402;2022-11-24T10:24:00;8.55;;;1.60;;
54953;SDS011;40855;51.072;5.402;2022-11-24T10:26:55;16.13;;;2.20;;
54953;SDS011;40855;51.072;5.402;2022-11-24T10:29:41;13.95;;;1.85;;
54953;SDS011;40855;51.072;5.402;2022-11-24T10:32:13;15.82;;;2.15;;
54953;SDS011;40855;51.072;5.402;2022-11-24T10:34:46;11.25;;;1.67;;
54953;SDS011;40855;51.072;5.402;2022-11-24T10:37:22;15.32;;;2.15;;
54953;SDS011;40855;51.072;5.402;2022-11-24T10:42:46;16.17;;;2.05;;
54953;SDS011;40855;51.072;5.402;2022-11-24T10:45:14;15.23;;;2.47;;
54953;SDS011;40855;51.072;5.402;2022-11-24T10:47:42;14.52;;;2.13;;
54953;SDS011;40855;51.072;5.402;2022-11-24T10:50:25;15.32;;;2.35;;
54953;SDS011;40855;51.072;5.402;2022-11-24T10:58:41;15.27;;;2.33;;
54953;SDS011;40855;51.072;5.402;2022-11-24T11:09:10;14.15;;;2.50;;
54953;SDS011;40855;51.072;5.402;2022-11-24T11:11:46;11.70;;;1.90;;
54953;SDS011;40855;51.072;5.402;2022-11-24T11:14:27;17.45;;;2.65;;
54953;SDS011;40855;51.072;5.402;2022-11-24T11:16:55;18.10;;;2.60;;
54953;SDS011;40855;51.072;5.402;2022-11-24T11:19:30;18.20;;;2.42;;
54953;SDS011;40855;51.072;5.402;2022-11-24T11:22:01;28.55;;;2.50;;
54953;SDS011;40855;51.072;5.402;2022-11-24T11:24:30;11.80;;;1.52;;
54953;SDS011;40855;51.072;5.402;2022-11-24T11:27:00;15.20;;;2.00;;
54953;SDS011;40855;51.072;5.402;2022-11-24T11:29:27;20.10;;;2.35;;
54953;SDS011;40855;51.072;5.402;2022-11-24T11:31:58;20.90;;;3.00;;
54953;SDS011;40855;51.072;5.402;2022-11-24T11:34:38;15.27;;;2.42;;
54953;SDS011;40855;51.072;5.402;2022-11-24T11:37:04;11.73;;;1.80;;
54953;SDS011;40855;51.072;5.402;2022-11-24T11:39:32;15.38;;;2.10;;
54953;SDS011;40855;51.072;5.402;2022-11-24T11:45:09;18.02;;;2.00;;
54953;SDS011;40855;51.072;5.402;2022-11-24T11:48:26;12.33;;;2.13;;
54953;SDS011;40855;51.072;5.402;2022-11-24T11:50:28;11.52;;;2.13;;
54953;SDS011;40855;51.072;5.402;2022-11-24T11:56:27;11.85;;;2.25;;
54953;SDS011;40855;51.072;5.402;2022-11-24T12:18:21;13.80;;;2.03;;
54953;SDS011;40855;51.072;5.402;2022-11-24T12:24:04;15.02;;;1.88;;
54953;SDS011;40855;51.072;5.402;2022-11-24T12:43:31;28.23;;;1.95;;
54953;SDS011;40855;51.072;5.402;2022-11-24T12:46:16;16.58;;;1.85;;
54953;SDS011;40855;51.072;5.402;2022-11-24T12:51:40;17.60;;;2.08;;
54953;SDS011;40855;51.072;5.402;2022-11-24T12:54:11;10.73;;;1.98;;
54953;SDS011;40855;51.072;5.402;2022-11-24T13:07:25;15.30;;;2.25;;
54953;SDS011;40855;51.072;5.402;2022-11-24T13:12:52;16.73;;;2.03;;
54953;SDS011;40855;51.072;5.402;2022-11-24T13:15:18;16.17;;;2.67;;
54953;SDS011;40855;51.072;5.402;2022-11-24T13:17:44;14.35;;;2.17;;
54953;SDS011;40855;51.072;5.402;2022-11-24T13:20:21;18.60;;;2.42;;
54953;SDS011;40855;51.072;5.402;2022-11-24T13:22:54;16.88;;;2.70;;
54953;SDS011;40855;51.072;5.402;2022-11-24T13:25:33;14.18;;;2.42;;
54953;SDS011;40855;51.072;5.402;2022-11-24T13:28:00;18.00;;;2.80;;
54953;SDS011;40855;51.072;5.402;2022-11-24T13:35:40;10.95;;;2.15;;
54953;SDS011;40855;51.072;5.402;2022-11-24T13:38:38;12.40;;;2.03;;
54953;SDS011;40855;51.072;5.402;2022-11-24T13:41:07;19.77;;;2.45;;
54953;SDS011;40855;51.072;5.402;2022-11-24T13:43:34;15.73;;;2.65;;
54953;SDS011;40855;51.072;5.402;2022-11-24T13:46:01;15.15;;;2.22;;
54953;SDS011;40855;51.072;5.402;2022-11-24T14:02:21;22.63;;;2.83;;
54953;SDS011;40855;51.072;5.402;2022-11-24T14:04:21;16.60;;;2.42;;
54953;SDS011;40855;51.072;5.402;2022-11-24T14:09:22;19.95;;;2.90;;
54953;SDS011;40855;51.072;5.402;2022-11-24T14:12:11;10.25;;;2.40;;
54953;SDS011;40855;51.072;5.402;2022-11-24T14:14:37;19.27;;;2.65;;
54953;SDS011;40855;51.072;5.402;2022-11-24T14:17:12;20.23;;;2.97;;
54953;SDS011;40855;51.072;5.402;2022-11-24T14:19:48;15.98;;;2.85;;
54953;SDS011;40855;51.072;5.402;2022-11-24T14:24:41;16.33;;;2.70;;
54953;SDS011;40855;51.072;5.402;2022-11-24T14:27:15;17.27;;;2.70;;
54953;SDS011;40855;51.072;5.402;2022-11-24T14:29:53;23.80;;;2.50;;
54953;SDS011;40855;51.072;5.402;2022-11-24T14:32:23;13.57;;;2.55;;
54953;SDS011;40855;51.072;5.402;2022-11-24T14:34:49;18.77;;;3.78;;
54953;SDS011;40855;51.072;5.402;2022-11-24T14:37:16;18.38;;;3.75;;
54953;SDS011;40855;51.072;5.402;2022-11-24T14:39:43;16.60;;;2.67;;
54953;SDS011;40855;51.072;5.402;2022-11-24T14:42:24;16.70;;;2.63;;
54953;SDS011;40855;51.072;5.402;2022-11-24T14:49:53;10.45;;;2.28;;
54953;SDS011;40855;51.072;5.402;2022-11-24T14:52:21;24.50;;;2.65;;
54953;SDS011;40855;51.072;5.402;2022-11-24T14:54:49;18.40;;;2.78;;
54953;SDS011;40855;51.072;5.402;2022-11-24T15:00:29;26.67;;;3.00;;
54953;SDS011;40855;51.072;5.402;2022-11-24T15:05:25;16.08;;;2.60;;
54953;SDS011;40855;51.072;5.402;2022-11-24T15:08:36;15.80;;;2.33;;
54953;SDS011;40855;51.072;5.402;2022-11-24T15:11:10;13.70;;;2.90;;
54953;SDS011;40855;51.072;5.402;2022-11-24T15:13:37;12.98;;;3.03;;
54953;SDS011;40855;51.072;5.402;2022-11-24T15:16:07;20.45;;;3.58;;
54953;SDS011;40855;51.072;5.402;2022-11-24T15:18:40;16.13;;;3.20;;
54953;SDS011;40855;51.072;5.402;2022-11-24T15:21:11;16.60;;;3.22;;
54953;SDS011;40855;51.072;5.402;2022-11-24T15:23:37;17.17;;;2.97;;
54953;SDS011;40855;51.072;5.402;2022-11-24T15:28:35;15.20;;;3.15;;
54953;SDS011;40855;51.072;5.402;2022-11-24T15:31:07;16.38;;;3.50;;
54953;SDS011;40855;51.072;5.402;2022-11-24T15:33:34;19.23;;;3.22;;
54953;SDS011;40855;51.072;5.402;2022-11-24T15:36:00;19.73;;;3.60;;
54953;SDS011;40855;51.072;5.402;2022-11-24T15:38:26;18.92;;;3.72;;
54953;SDS011;40855;51.072;5.402;2022-11-24T15:40:53;20.30;;;3.65;;
54953;SDS011;40855;51.072;5.402;2022-11-24T15:43:30;19.80;;;2.72;;
54953;SDS011;40855;51.072;5.402;2022-11-24T15:46:01;14.68;;;2.67;;
54953;SDS011;40855;51.072;5.402;2022-11-24T15:48:28;24.77;;;3.30;;
54953;SDS011;40855;51.072;5.402;2022-11-24T15:50:55;22.65;;;3.53;;
54953;SDS011;40855;51.072;5.402;2022-11-24T15:53:27;26.65;;;4.20;;
54953;SDS011;40855;51.072;5.402;2022-11-24T15:56:05;26.02;;;2.75;;
54953;SDS011;40855;51.072;5.402;2022-11-24T15:58:36;15.48;;;2.60;;
54953;SDS011;40855;51.072;5.402;2022-11-24T16:01:01;13.57;;;3.00;;
54953;SDS011;40855;51.072;5.402;2022-11-24T16:03:27;19.13;;;2.88;;
54953;SDS011;40855;51.072;5.402;2022-11-24T16:05:53;18.02;;;2.83;;
54953;SDS011;40855;51.072;5.402;2022-11-24T16:08:19;14.75;;;2.35;;
54953;SDS011;40855;51.072;5.402;2022-11-24T16:10:45;22.95;;;3.55;;
54953;SDS011;40855;51.072;5.402;2022-11-24T16:13:11;24.13;;;2.70;;
54953;SDS011;40855;51.072;5.402;2022-11-24T16:15:37;21.90;;;2.60;;
54953;SDS011;40855;51.072;5.402;2022-11-24T16:18:03;20.00;;;2.40;;
54953;SDS011;40855;51.072;5.402;2022-11-24T16:20:30;17.75;;;3.40;;
54953;SDS011;40855;51.072;5.402;2022-11-24T16:22:56;21.33;;;2.42;;
54953;SDS011;40855;51.072;5.402;2022-11-24T16:25:22;20.80;;;2.92;;
54953;SDS011;40855;51.072;5.402;2022-11-24T16:27:47;17.05;;;2.17;;
54953;SDS011;40855;51.072;5.402;2022-11-24T16:30:13;16.85;;;2.88;;
54953;SDS011;40855;51.072;5.402;2022-11-24T16:32:39;19.13;;;2.67;;
54953;SDS011;40855;51.072;5.402;2022-11-24T16:35:05;24.63;;;3.28;;
54953;SDS011;40855;51.072;5.402;2022-11-24T16:37:31;19.63;;;3.63;;
54953;SDS011;40855;51.072;5.402;2022-11-24T16:39:57;14.32;;;2.60;;
54953;SDS011;40855;51.072;5.402;2022-11-24T16:42:23;21.70;;;2.78;;
54953;SDS011;40855;51.072;5.402;2022-11-24T16:44:49;17.13;;;2.78;;
54953;SDS011;40855;51.072;5.402;2022-11-24T16:47:16;15.95;;;3.00;;
54953;SDS011;40855;51.072;5.402;2022-11-24T16:49:42;17.45;;;2.85;;
54953;SDS011;40855;51.072;5.402;2022-11-24T16:52:09;14.27;;;3.17;;
54953;SDS011;40855;51.072;5.402;2022-11-24T16:54:35;14.23;;;2.65;;
54953;SDS011;40855;51.072;5.402;2022-11-24T16:57:01;12.23;;;2.58;;
54953;SDS011;40855;51.072;5.402;2022-11-24T16:59:27;18.90;;;3.10;;
54953;SDS011;40855;51.072;5.402;2022-11-24T17:01:52;19.05;;;2.92;;
54953;SDS011;40855;51.072;5.402;2022-11-24T17:04:18;14.77;;;2.60;;
54953;SDS011;40855;51.072;5.402;2022-11-24T17:06:44;30.15;;;2.80;;
54953;SDS011;40855;51.072;5.402;2022-11-24T17:09:09;19.95;;;2.83;;
54953;SDS011;40855;51.072;5.402;2022-11-24T17:11:53;10.20;;;1.67;;
54953;SDS011;40855;51.072;5.402;2022-11-24T17:14:19;12.43;;;2.78;;